Stevenson, Connecticut
Current Conditions -  °F | °C
As of 3:50 PM on Tuesday 25 Nov 2014 (Local Time) from KOXC Reporting Station
Overcast Overcast  
Wind Chill: 50°   Ceiling: 15000
Heat Index: 50°   Visibility: 10mi
Dew Point: 27°   Wind: 3mph
Humidity: 40%   Direction: 270°W
Pressure: 29.98"   Gusts: NA
Location:  41.38°N, 73.18°W
Report Text: KOXC 252050Z 27003KT 10SM BKN150 OVC250 10/M03 A2998
Loading
Personal Weather Stations






























Interactive Weather Map New forecast layout! Learn more

10-Day Weather Forecast

Advertisements
Track Severe Weather on mobile